Time;durP1;ratioP1;P1;durP2;ratioP2;P2;SDS_P1;SDS_P2;PMS_P1;PMS_P2;Temp;Humidity;BMP_temperature;BMP_pressure;BME280_temperature;BME280_humidity;BME280_pressure;Samples;Min_cycle;Max_cycle;Signal;HPM_P1;HPM_P2
2021/06/30 00:00:00;;;;;;;;;;;14.60;99.90;;;;;;5111232;28;20297;-89
2021/06/30 00:02:26;;;;;;;;;;;14.50;99.90;;;;;;5093835;28;20015;-90
2021/06/30 00:04:52;;;;;;;;;;;14.50;99.90;;;;;;5110853;28;20268;-89
2021/06/30 00:07:20;;;;;;;;;;;14.50;99.90;;;;;;5111320;28;19920;-90
2021/06/30 00:09:46;;;;;;;;;;;14.40;99.90;;;;;;5111441;28;19975;-90
2021/06/30 00:12:11;;;;;;;;;;;14.40;99.90;;;;;;5105273;28;19971;-89
2021/06/30 00:14:38;;;;;;;;;;;14.40;99.90;;;;;;5111620;28;19920;-90
2021/06/30 00:17:04;;;;;;;;;;;14.40;99.90;;;;;;5106269;28;19926;-89
2021/06/30 00:19:31;;;;;;;;;;;14.30;99.90;;;;;;5111692;28;19975;-90
2021/06/30 00:21:57;;;;;;;;;;;14.30;99.90;;;;;;5109837;28;19920;-89
2021/06/30 00:24:23;;;;;;;;;;;14.40;99.90;;;;;;5094496;28;19926;-90
2021/06/30 00:26:48;;;;;;;;;;;14.30;99.90;;;;;;5128142;28;20329;-90
2021/06/30 00:29:14;;;;;;;;;;;14.30;99.90;;;;;;5110896;28;19923;-90
2021/06/30 00:31:40;;;;;;;;;;;14.30;99.90;;;;;;5092936;28;19927;-90
2021/06/30 00:34:05;;;;;;;;;;;14.30;99.90;;;;;;5111017;28;20409;-90
2021/06/30 00:36:35;;;;;;;;;;;14.40;99.90;;;;;;5118406;28;19917;-90
2021/06/30 00:39:02;;;;;;;;;;;14.40;99.90;;;;;;5114114;28;19984;-90
2021/06/30 00:41:28;;;;;;;;;;;14.40;99.90;;;;;;5110957;28;19922;-90
2021/06/30 00:43:54;;;;;;;;;;;14.40;99.90;;;;;;5093915;28;20005;-90
2021/06/30 00:46:23;;;;;;;;;;;14.30;99.90;;;;;;5110841;28;19915;-89
2021/06/30 00:48:49;;;;;;;;;;;14.30;99.90;;;;;;5110595;28;19922;-90
2021/06/30 00:51:14;;;;;;;;;;;14.40;99.90;;;;;;5110302;28;19916;-89
2021/06/30 00:53:40;;;;;;;;;;;14.30;99.90;;;;;;5077036;28;19916;-90
2021/06/30 00:56:06;;;;;;;;;;;14.40;99.90;;;;;;5110879;28;20006;-90
2021/06/30 00:58:33;;;;;;;;;;;14.40;99.90;;;;;;5077324;28;19922;-90
2021/06/30 01:00:58;;;;;;;;;;;14.40;99.90;;;;;;5110878;28;19931;-91
2021/06/30 01:03:26;;;;;;;;;;;14.40;99.90;;;;;;5096956;28;20274;-89
2021/06/30 01:05:52;;;;;;;;;;;14.40;99.90;;;;;;5101402;28;19922;-89
2021/06/30 01:08:17;;;;;;;;;;;14.40;99.90;;;;;;5096711;28;19924;-91
2021/06/30 01:10:43;;;;;;;;;;;14.40;99.90;;;;;;5113611;28;19919;-90
2021/06/30 01:13:09;;;;;;;;;;;14.40;99.90;;;;;;5114219;28;20374;-90
2021/06/30 01:15:54;;;;;;;;;;;14.40;99.90;;;;;;5112494;28;19915;-90
2021/06/30 01:18:21;;;;;;;;;;;14.40;99.90;;;;;;5114429;28;20641;-89
2021/06/30 01:20:47;;;;;;;;;;;14.40;99.90;;;;;;5114025;28;20014;-91
2021/06/30 01:23:13;;;;;;;;;;;14.40;99.90;;;;;;5091654;28;19959;-91
2021/06/30 01:25:39;;;;;;;;;;;14.40;99.90;;;;;;5097495;28;19915;-89
2021/06/30 01:28:05;;;;;;;;;;;14.40;99.90;;;;;;5097575;28;19920;-90
2021/06/30 01:30:31;;;;;;;;;;;14.40;99.90;;;;;;5097157;28;19916;-89
2021/06/30 01:32:57;;;;;;;;;;;14.40;99.90;;;;;;5096183;28;20391;-89
2021/06/30 01:35:26;;;;;;;;;;;14.40;99.90;;;;;;5097544;28;20378;-89
2021/06/30 01:37:52;;;;;;;;;;;14.30;99.90;;;;;;5106193;28;20401;-89
2021/06/30 01:40:18;;;;;;;;;;;14.20;99.90;;;;;;5096795;28;19985;-90
2021/06/30 01:42:44;;;;;;;;;;;14.20;99.90;;;;;;5113994;28;19958;-90
2021/06/30 01:45:10;;;;;;;;;;;14.20;99.90;;;;;;5113546;28;20001;-89
2021/06/30 01:47:38;;;;;;;;;;;14.10;99.90;;;;;;5113393;28;19915;-89
2021/06/30 01:50:04;;;;;;;;;;;14.20;99.90;;;;;;5093724;28;19919;-90
2021/06/30 01:52:30;;;;;;;;;;;14.20;99.90;;;;;;5095754;28;20485;-89
2021/06/30 01:54:56;;;;;;;;;;;14.20;99.90;;;;;;5113469;28;19924;-88
2021/06/30 01:57:22;;;;;;;;;;;14.20;99.90;;;;;;5114559;28;19923;-88
2021/06/30 01:59:47;;;;;;;;;;;14.10;99.90;;;;;;5113665;28;19995;-88
2021/06/30 02:02:13;;;;;;;;;;;14.00;99.90;;;;;;5114310;28;19990;-87
2021/06/30 02:04:46;;;;;;;;;;;14.00;99.90;;;;;;5114268;28;19927;-88
2021/06/30 02:10:46;;;;;;;;;;;13.90;99.90;;;;;;5111412;28;19920;-87
2021/06/30 02:13:12;;;;;;;;;;;14.00;99.90;;;;;;5112041;28;19964;-88
2021/06/30 02:15:44;;;;;;;;;;;13.90;99.90;;;;;;5094816;28;19927;-88
2021/06/30 02:18:10;;;;;;;;;;;13.90;99.90;;;;;;5096084;28;19930;-87
2021/06/30 02:20:36;;;;;;;;;;;13.80;99.90;;;;;;5091733;28;19916;-88
2021/06/30 02:23:02;;;;;;;;;;;13.80;99.90;;;;;;5113140;28;19955;-87
2021/06/30 02:25:29;;;;;;;;;;;13.90;99.90;;;;;;5079554;28;19950;-88
2021/06/30 02:27:56;;;;;;;;;;;13.90;99.90;;;;;;5112585;28;19945;-87
2021/06/30 02:30:23;;;;;;;;;;;13.90;99.90;;;;;;5113083;28;19935;-87
2021/06/30 02:32:49;;;;;;;;;;;13.90;99.90;;;;;;5112469;28;19969;-88
2021/06/30 02:35:16;;;;;;;;;;;13.90;99.90;;;;;;5112801;28;19923;-87
2021/06/30 02:37:41;;;;;;;;;;;13.80;99.90;;;;;;5129864;27;19920;-87
2021/06/30 02:40:09;;;;;;;;;;;13.80;99.90;;;;;;5112048;28;20343;-88
2021/06/30 02:42:35;;;;;;;;;;;13.90;99.90;;;;;;5094978;28;19927;-88
2021/06/30 02:45:00;;;;;;;;;;;13.90;99.90;;;;;;5112271;28;19920;-87
2021/06/30 02:47:26;;;;;;;;;;;13.90;99.90;;;;;;5112885;28;19937;-86
2021/06/30 02:49:52;;;;;;;;;;;13.90;99.90;;;;;;5112215;28;19923;-87
2021/06/30 02:52:18;;;;;;;;;;;13.90;99.90;;;;;;5113002;28;19974;-87
2021/06/30 02:54:43;;;;;;;;;;;14.00;99.90;;;;;;5112535;28;19947;-86
2021/06/30 02:57:09;;;;;;;;;;;14.00;99.90;;;;;;5111838;28;19919;-88
2021/06/30 02:59:35;;;;;;;;;;;14.00;99.90;;;;;;5112678;28;19923;-87
2021/06/30 03:02:00;;;;;;;;;;;14.00;99.90;;;;;;5082511;28;19973;-87
2021/06/30 03:04:26;;;;;;;;;;;14.10;99.90;;;;;;5112665;28;20386;-88
2021/06/30 03:06:52;;;;;;;;;;;14.00;99.90;;;;;;5113678;28;19930;-87
2021/06/30 03:09:22;;;;;;;;;;;14.00;99.90;;;;;;5094484;28;19962;-87
2021/06/30 03:11:48;;;;;;;;;;;14.00;99.90;;;;;;5118141;27;19927;-87
2021/06/30 03:14:14;;;;;;;;;;;14.00;99.90;;;;;;5111974;28;19942;-87
2021/06/30 03:16:39;;;;;;;;;;;13.90;99.90;;;;;;5112731;28;19990;-87
2021/06/30 03:19:05;;;;;;;;;;;13.80;99.90;;;;;;5111314;28;19915;-87
2021/06/30 03:21:31;;;;;;;;;;;13.80;99.90;;;;;;5111363;28;19922;-86
2021/06/30 03:23:57;;;;;;;;;;;13.80;99.90;;;;;;5111668;28;20318;-88
2021/06/30 03:26:23;;;;;;;;;;;13.80;99.90;;;;;;5109829;28;19919;-87
2021/06/30 03:28:48;;;;;;;;;;;13.90;99.90;;;;;;5099528;28;19919;-87
2021/06/30 03:31:14;;;;;;;;;;;13.90;99.90;;;;;;5110479;27;19920;-86
2021/06/30 03:33:42;;;;;;;;;;;13.90;99.90;;;;;;5110496;27;20031;-87
2021/06/30 03:36:08;;;;;;;;;;;13.90;99.90;;;;;;5095847;28;19998;-87
2021/06/30 03:38:34;;;;;;;;;;;13.90;99.90;;;;;;5112398;28;20007;-87
2021/06/30 03:41:00;;;;;;;;;;;13.90;99.90;;;;;;5093931;28;19923;-87
2021/06/30 03:43:25;;;;;;;;;;;13.80;99.90;;;;;;5111926;28;19915;-87
2021/06/30 03:45:51;;;;;;;;;;;13.80;99.90;;;;;;5111437;28;19957;-87
2021/06/30 03:48:17;;;;;;;;;;;13.80;99.90;;;;;;5125296;27;19965;-87
2021/06/30 03:50:42;;;;;;;;;;;13.80;99.90;;;;;;5090664;28;19955;-87
2021/06/30 03:53:08;;;;;;;;;;;13.80;99.90;;;;;;5101784;28;19919;-87
2021/06/30 03:55:34;;;;;;;;;;;13.80;99.90;;;;;;5094577;28;20434;-87
2021/06/30 03:57:59;;;;;;;;;;;13.80;99.90;;;;;;5094115;28;19962;-87
2021/06/30 04:00:27;;;;;;;;;;;13.90;99.90;;;;;;5116173;27;19922;-87
2021/06/30 04:02:56;;;;;;;;;;;14.00;99.90;;;;;;5094834;28;19923;-87
2021/06/30 04:05:22;;;;;;;;;;;14.00;99.90;;;;;;5094138;28;19927;-87
2021/06/30 04:07:48;;;;;;;;;;;14.00;99.90;;;;;;5108802;28;20056;-87
2021/06/30 04:10:14;;;;;;;;;;;14.00;99.90;;;;;;5093828;28;20010;-87
2021/06/30 04:12:39;;;;;;;;;;;14.10;99.90;;;;;;5116877;27;19920;-87
2021/06/30 04:15:06;;;;;;;;;;;14.10;99.90;;;;;;5104975;28;19919;-86
2021/06/30 04:17:31;;;;;;;;;;;14.00;99.90;;;;;;5091042;28;19916;-87
2021/06/30 04:19:58;;;;;;;;;;;14.00;99.90;;;;;;5076618;28;20359;-87
2021/06/30 04:22:23;;;;;;;;;;;14.10;99.90;;;;;;5110655;28;20011;-87
2021/06/30 04:24:50;;;;;;;;;;;14.10;99.90;;;;;;5074541;28;19924;-87
2021/06/30 04:27:15;;;;;;;;;;;14.00;99.90;;;;;;5111224;28;20271;-88
2021/06/30 04:29:41;;;;;;;;;;;14.00;99.90;;;;;;5101441;28;19920;-87
2021/06/30 04:32:07;;;;;;;;;;;14.00;99.90;;;;;;5110961;28;20290;-86
2021/06/30 04:34:32;;;;;;;;;;;14.00;99.90;;;;;;5110863;28;20431;-87
2021/06/30 04:37:00;;;;;;;;;;;14.00;99.90;;;;;;5111018;28;19920;-87
2021/06/30 04:39:27;;;;;;;;;;;13.90;99.90;;;;;;5097806;28;20007;-87
2021/06/30 04:41:53;;;;;;;;;;;14.00;99.90;;;;;;5114536;28;19926;-87
2021/06/30 04:44:19;;;;;;;;;;;14.00;99.90;;;;;;5113445;28;19919;-87
2021/06/30 04:46:44;;;;;;;;;;;14.00;99.90;;;;;;5114547;28;20011;-87
2021/06/30 04:49:10;;;;;;;;;;;14.00;99.90;;;;;;5097522;28;19943;-88
2021/06/30 04:51:36;;;;;;;;;;;14.10;99.90;;;;;;5114077;28;19922;-87
2021/06/30 04:54:02;;;;;;;;;;;14.10;99.90;;;;;;5115911;28;19919;-88
2021/06/30 04:56:29;;;;;;;;;;;14.00;99.90;;;;;;5116036;28;19915;-87
2021/06/30 04:58:55;;;;;;;;;;;14.00;99.90;;;;;;5098063;28;19915;-87
2021/06/30 05:01:21;;;;;;;;;;;14.00;99.90;;;;;;5113718;28;19915;-88
2021/06/30 05:03:47;;;;;;;;;;;14.00;99.90;;;;;;5114496;28;19920;-87
2021/06/30 05:06:13;;;;;;;;;;;14.00;99.90;;;;;;5130789;27;20306;-88
2021/06/30 05:08:39;;;;;;;;;;;14.00;99.90;;;;;;5114398;28;19919;-88
2021/06/30 05:11:04;;;;;;;;;;;14.00;99.90;;;;;;5114137;28;19919;-88
2021/06/30 05:13:30;;;;;;;;;;;14.00;99.90;;;;;;5097154;28;19915;-86
2021/06/30 05:15:56;;;;;;;;;;;13.90;99.90;;;;;;5097305;28;19927;-88
2021/06/30 05:18:22;;;;;;;;;;;13.90;99.90;;;;;;5113773;28;20006;-86
2021/06/30 05:20:48;;;;;;;;;;;13.90;99.90;;;;;;5102626;28;20450;-87
2021/06/30 05:23:14;;;;;;;;;;;13.80;99.90;;;;;;5094998;28;19926;-87
2021/06/30 05:25:41;;;;;;;;;;;13.90;99.90;;;;;;5113898;28;19919;-87
2021/06/30 05:28:06;;;;;;;;;;;13.90;99.90;;;;;;5093428;28;20015;-87
2021/06/30 05:30:32;;;;;;;;;;;14.00;99.90;;;;;;5103359;28;19938;-88
2021/06/30 05:32:58;;;;;;;;;;;13.90;99.90;;;;;;5097005;28;19920;-87
2021/06/30 05:35:23;;;;;;;;;;;13.90;99.90;;;;;;5113511;28;19964;-87
2021/06/30 05:37:50;;;;;;;;;;;13.90;99.90;;;;;;5113834;28;19927;-87
2021/06/30 05:40:16;;;;;;;;;;;13.90;99.90;;;;;;5087246;28;20006;-88
2021/06/30 05:42:43;;;;;;;;;;;14.00;99.90;;;;;;5110124;28;20006;-87
2021/06/30 05:45:15;;;;;;;;;;;13.90;99.90;;;;;;5096684;28;19969;-87
2021/06/30 05:47:41;;;;;;;;;;;14.00;99.90;;;;;;5131059;27;20027;-87
2021/06/30 05:50:07;;;;;;;;;;;14.00;99.90;;;;;;5096707;28;19919;-87
2021/06/30 05:52:33;;;;;;;;;;;14.00;99.90;;;;;;5095887;28;19933;-87
2021/06/30 05:54:58;;;;;;;;;;;14.00;99.90;;;;;;5113289;28;20294;-87
2021/06/30 05:57:24;;;;;;;;;;;13.90;99.90;;;;;;5096167;28;19927;-87
2021/06/30 05:59:50;;;;;;;;;;;13.90;99.90;;;;;;5114271;28;20006;-87
2021/06/30 06:02:15;;;;;;;;;;;14.00;99.90;;;;;;5078412;28;20381;-87
2021/06/30 06:04:41;;;;;;;;;;;14.00;99.90;;;;;;5092754;28;19962;-87
2021/06/30 06:07:07;;;;;;;;;;;14.00;99.90;;;;;;5109798;28;20386;-87
2021/06/30 06:09:33;;;;;;;;;;;14.00;99.90;;;;;;5096519;28;19920;-87
2021/06/30 06:11:58;;;;;;;;;;;14.00;99.90;;;;;;5112696;28;19924;-87
2021/06/30 06:14:24;;;;;;;;;;;13.90;99.90;;;;;;5113238;28;19942;-88
2021/06/30 06:16:50;;;;;;;;;;;13.90;99.90;;;;;;5095576;28;20056;-86
2021/06/30 06:19:15;;;;;;;;;;;14.00;99.90;;;;;;5096225;28;19916;-87
2021/06/30 06:21:41;;;;;;;;;;;14.00;99.90;;;;;;5112135;28;19984;-87
2021/06/30 06:24:07;;;;;;;;;;;14.10;99.90;;;;;;5111150;28;19915;-86
2021/06/30 06:26:33;;;;;;;;;;;14.10;99.90;;;;;;5112586;28;20645;-87
2021/06/30 06:28:59;;;;;;;;;;;14.10;99.90;;;;;;5112824;28;19920;-87
2021/06/30 06:31:27;;;;;;;;;;;14.00;99.90;;;;;;5095980;28;19920;-86
2021/06/30 06:33:53;;;;;;;;;;;14.00;99.90;;;;;;5095697;28;20371;-86
2021/06/30 06:36:19;;;;;;;;;;;14.00;99.90;;;;;;5114985;28;20018;-87
2021/06/30 06:38:45;;;;;;;;;;;14.10;99.90;;;;;;5096085;28;20371;-87
2021/06/30 06:41:11;;;;;;;;;;;14.10;99.90;;;;;;5112429;28;19941;-87
2021/06/30 06:43:42;;;;;;;;;;;14.10;99.90;;;;;;5111794;28;19912;-87
2021/06/30 06:46:08;;;;;;;;;;;14.10;99.90;;;;;;5112048;28;19915;-86
2021/06/30 06:48:34;;;;;;;;;;;14.20;99.90;;;;;;5095580;28;19919;-85
2021/06/30 06:50:59;;;;;;;;;;;14.20;99.90;;;;;;5094231;28;20067;-86
2021/06/30 06:53:25;;;;;;;;;;;14.30;99.90;;;;;;5111876;28;19964;-85
2021/06/30 06:55:52;;;;;;;;;;;14.30;99.90;;;;;;5111612;28;20397;-86
2021/06/30 06:58:17;;;;;;;;;;;14.40;99.90;;;;;;5090832;28;19916;-86
2021/06/30 07:00:43;;;;;;;;;;;14.40;99.90;;;;;;5098400;28;20010;-86
2021/06/30 07:03:09;;;;;;;;;;;14.30;99.90;;;;;;5112644;28;19926;-86
2021/06/30 07:05:35;;;;;;;;;;;14.40;99.90;;;;;;5084367;28;19938;-86
2021/06/30 07:08:00;;;;;;;;;;;14.40;99.90;;;;;;5110124;28;19923;-85
2021/06/30 07:10:26;;;;;;;;;;;14.40;99.90;;;;;;5088874;28;19923;-87
2021/06/30 07:12:52;;;;;;;;;;;14.40;99.90;;;;;;5110500;28;20475;-86
2021/06/30 07:15:17;;;;;;;;;;;14.50;99.90;;;;;;5110477;28;20371;-86
2021/06/30 07:17:43;;;;;;;;;;;14.50;99.90;;;;;;5092282;28;19943;-86
2021/06/30 07:20:09;;;;;;;;;;;14.40;99.90;;;;;;5110135;28;19920;-86
2021/06/30 07:22:35;;;;;;;;;;;14.50;99.90;;;;;;5110399;28;19925;-87
2021/06/30 07:25:03;;;;;;;;;;;14.50;99.90;;;;;;5101054;28;20058;-88
2021/06/30 07:27:30;;;;;;;;;;;14.40;99.90;;;;;;5109720;28;20013;-86
2021/06/30 07:29:56;;;;;;;;;;;14.40;99.90;;;;;;5106079;28;19915;-85
2021/06/30 07:32:21;;;;;;;;;;;14.50;99.90;;;;;;5110206;28;19916;-85
2021/06/30 07:34:47;;;;;;;;;;;14.50;99.90;;;;;;5111542;28;20508;-90
2021/06/30 07:37:13;;;;;;;;;;;14.50;99.90;;;;;;5093250;28;19968;-87
2021/06/30 07:39:39;;;;;;;;;;;14.40;99.90;;;;;;5110758;28;19919;-88
2021/06/30 07:42:05;;;;;;;;;;;14.40;99.90;;;;;;5087539;28;19916;-88
2021/06/30 07:44:31;;;;;;;;;;;14.40;99.90;;;;;;5110758;28;19915;-88
2021/06/30 07:46:56;;;;;;;;;;;14.40;99.90;;;;;;5089271;28;19964;-88
2021/06/30 07:49:22;;;;;;;;;;;14.40;99.90;;;;;;5110384;28;19920;-86
2021/06/30 07:51:50;;;;;;;;;;;14.40;99.90;;;;;;5109259;28;19922;-86
2021/06/30 07:54:16;;;;;;;;;;;14.40;99.90;;;;;;5109838;28;19923;-85
2021/06/30 07:56:42;;;;;;;;;;;14.40;99.90;;;;;;5110306;28;19927;-86
2021/06/30 07:59:08;;;;;;;;;;;14.40;99.90;;;;;;5109369;28;19927;-85
2021/06/30 08:01:34;;;;;;;;;;;14.30;99.90;;;;;;5111121;28;19923;-88
2021/06/30 08:04:00;;;;;;;;;;;14.30;99.90;;;;;;5102958;27;19927;-88
2021/06/30 08:06:26;;;;;;;;;;;14.30;99.90;;;;;;5106325;28;19934;-88
2021/06/30 08:08:52;;;;;;;;;;;14.30;99.90;;;;;;5108716;28;19915;-88
2021/06/30 08:11:19;;;;;;;;;;;14.20;99.90;;;;;;5106936;28;19923;-88
2021/06/30 08:13:45;;;;;;;;;;;14.30;99.90;;;;;;5090243;28;19916;-88
2021/06/30 08:16:10;;;;;;;;;;;14.30;99.90;;;;;;5099851;28;19998;-88
2021/06/30 08:18:36;;;;;;;;;;;14.40;99.90;;;;;;5092430;28;19965;-88
2021/06/30 08:21:02;;;;;;;;;;;14.50;99.90;;;;;;5086521;28;19920;-88
2021/06/30 08:23:28;;;;;;;;;;;14.50;99.90;;;;;;5102239;28;19919;-88
2021/06/30 08:25:54;;;;;;;;;;;14.50;99.90;;;;;;5109100;28;20461;-88
2021/06/30 08:28:23;;;;;;;;;;;14.60;99.90;;;;;;5092585;28;19920;-88
2021/06/30 08:30:50;;;;;;;;;;;14.60;99.90;;;;;;5109356;28;19920;-88
2021/06/30 08:33:15;;;;;;;;;;;14.60;99.90;;;;;;5095968;28;19923;-88
2021/06/30 08:35:41;;;;;;;;;;;14.50;99.90;;;;;;5110203;28;19922;-87
2021/06/30 08:38:07;;;;;;;;;;;14.40;99.90;;;;;;5110156;28;19923;-88
2021/06/30 08:40:33;;;;;;;;;;;14.40;99.90;;;;;;5122657;28;20377;-87
2021/06/30 08:42:59;;;;;;;;;;;14.40;99.90;;;;;;5110167;28;19959;-87
2021/06/30 08:45:24;;;;;;;;;;;14.40;99.90;;;;;;5111454;28;19973;-88
2021/06/30 08:47:54;;;;;;;;;;;14.40;99.90;;;;;;5092920;28;19920;-88
2021/06/30 08:50:23;;;;;;;;;;;14.40;99.90;;;;;;5110150;28;19926;-88
2021/06/30 08:52:50;;;;;;;;;;;14.50;99.90;;;;;;5109353;28;19973;-88
2021/06/30 08:55:16;;;;;;;;;;;14.60;99.90;;;;;;5116908;28;20299;-88
2021/06/30 08:57:44;;;;;;;;;;;14.60;99.90;;;;;;5089899;28;19916;-86
2021/06/30 09:00:10;;;;;;;;;;;14.60;99.90;;;;;;5126503;28;19931;-88
2021/06/30 09:02:36;;;;;;;;;;;14.60;99.90;;;;;;5089727;28;19916;-88
2021/06/30 09:05:13;;;;;;;;;;;14.60;99.90;;;;;;5107809;28;19980;-87
2021/06/30 09:07:39;;;;;;;;;;;14.70;99.90;;;;;;5105948;28;20006;-88
2021/06/30 09:10:05;;;;;;;;;;;14.60;99.90;;;;;;5107258;28;20011;-87
2021/06/30 09:12:35;;;;;;;;;;;14.60;99.90;;;;;;5108585;28;20927;-87
2021/06/30 09:15:12;;;;;;;;;;;14.60;99.90;;;;;;5109203;28;20438;-87
2021/06/30 09:17:38;;;;;;;;;;;14.60;99.90;;;;;;5109834;28;19965;-87
2021/06/30 09:20:06;;;;;;;;;;;14.60;99.90;;;;;;5087207;28;19928;-87
2021/06/30 09:22:40;;;;;;;;;;;14.60;99.90;;;;;;5110520;28;19920;-88
2021/06/30 09:25:06;;;;;;;;;;;14.60;99.90;;;;;;5113892;28;19919;-88
2021/06/30 09:27:37;;;;;;;;;;;14.50;99.90;;;;;;5113290;28;20101;-88
2021/06/30 09:30:04;;;;;;;;;;;14.50;99.90;;;;;;5113109;28;19920;-88
2021/06/30 09:32:30;;;;;;;;;;;14.60;99.90;;;;;;5110012;27;19916;-87
2021/06/30 09:35:16;;;;;;;;;;;14.60;99.90;;;;;;5112668;28;19987;-87
2021/06/30 09:37:41;;;;;;;;;;;14.60;99.90;;;;;;5098828;28;20071;-88
2021/06/30 09:40:08;;;;;;;;;;;14.70;99.90;;;;;;5110300;28;20672;-87
2021/06/30 09:42:34;;;;;;;;;;;14.70;99.90;;;;;;5094662;28;19951;-88
2021/06/30 09:45:10;;;;;;;;;;;14.70;99.90;;;;;;5111953;28;19954;-88
2021/06/30 09:47:49;;;;;;;;;;;14.70;99.90;;;;;;5112102;28;20409;-88
2021/06/30 09:50:15;;;;;;;;;;;14.80;99.90;;;;;;5112957;28;20014;-88
2021/06/30 09:52:42;;;;;;;;;;;14.80;99.90;;;;;;5095824;28;19985;-87
2021/06/30 09:55:26;;;;;;;;;;;14.80;99.90;;;;;;5112970;28;19923;-88
2021/06/30 09:57:52;;;;;;;;;;;14.80;99.90;;;;;;5113354;28;19916;-88
2021/06/30 10:00:18;;;;;;;;;;;14.70;99.90;;;;;;5095920;28;19919;-88
2021/06/30 10:02:48;;;;;;;;;;;14.70;99.90;;;;;;5112859;28;19926;-88
2021/06/30 10:05:14;;;;;;;;;;;14.60;99.90;;;;;;5113211;28;19916;-88
2021/06/30 10:07:39;;;;;;;;;;;14.70;99.90;;;;;;5095740;28;19927;-88
2021/06/30 10:10:07;;;;;;;;;;;14.70;99.90;;;;;;5114073;28;19916;-88
2021/06/30 10:12:33;;;;;;;;;;;14.60;99.90;;;;;;5110643;28;19925;-88
2021/06/30 10:15:00;;;;;;;;;;;14.60;99.90;;;;;;5113793;28;19997;-88
2021/06/30 10:17:26;;;;;;;;;;;14.60;99.90;;;;;;5090699;28;19920;-88
2021/06/30 10:19:53;;;;;;;;;;;14.60;99.90;;;;;;5111243;27;19916;-88
2021/06/30 10:22:20;;;;;;;;;;;14.60;99.90;;;;;;5106194;28;19919;-89
2021/06/30 10:24:46;;;;;;;;;;;14.60;99.90;;;;;;5128827;27;19920;-88
2021/06/30 10:27:13;;;;;;;;;;;14.70;99.90;;;;;;5078449;28;19937;-88
2021/06/30 10:29:41;;;;;;;;;;;14.80;99.90;;;;;;5113198;28;19916;-88
2021/06/30 10:32:14;;;;;;;;;;;14.90;99.90;;;;;;5112142;28;19928;-88
2021/06/30 10:34:45;;;;;;;;;;;14.90;99.90;;;;;;5088856;28;19915;-89
2021/06/30 10:37:24;;;;;;;;;;;14.90;99.90;;;;;;5110232;28;19969;-89
2021/06/30 10:40:12;;;;;;;;;;;14.90;99.90;;;;;;5075041;28;19928;-89
2021/06/30 10:42:40;;;;;;;;;;;15.00;99.90;;;;;;5118728;27;20287;-89
2021/06/30 10:45:12;;;;;;;;;;;15.00;99.90;;;;;;5106500;28;19923;-89
2021/06/30 10:47:40;;;;;;;;;;;15.10;99.90;;;;;;5112309;28;20375;-89
2021/06/30 10:50:24;;;;;;;;;;;15.00;99.90;;;;;;5112960;28;19927;-88
2021/06/30 10:53:12;;;;;;;;;;;15.00;99.90;;;;;;5111351;28;19924;-88
2021/06/30 10:55:41;;;;;;;;;;;14.90;99.90;;;;;;5109229;28;20010;-87
2021/06/30 10:58:10;;;;;;;;;;;14.90;99.90;;;;;;5106573;28;19942;-89
2021/06/30 11:00:36;;;;;;;;;;;14.80;99.90;;;;;;5111550;28;19916;-88
2021/06/30 11:03:19;;;;;;;;;;;14.80;99.90;;;;;;5090513;28;19920;-89
2021/06/30 11:05:45;;;;;;;;;;;14.80;99.90;;;;;;5120916;27;19960;-87
2021/06/30 11:08:30;;;;;;;;;;;14.70;99.90;;;;;;5109029;28;19916;-87
2021/06/30 11:10:55;;;;;;;;;;;14.50;99.90;;;;;;5109728;27;19928;-87
2021/06/30 11:13:21;;;;;;;;;;;14.50;99.90;;;;;;5093673;28;19919;-86
2021/06/30 11:15:47;;;;;;;;;;;14.50;99.90;;;;;;5092669;28;19916;-87
2021/06/30 11:18:13;;;;;;;;;;;14.60;99.90;;;;;;5122408;27;20347;-87
2021/06/30 11:20:46;;;;;;;;;;;14.50;99.90;;;;;;5116860;27;19924;-87
2021/06/30 11:23:19;;;;;;;;;;;14.60;99.90;;;;;;5090983;28;19945;-87
2021/06/30 11:25:45;;;;;;;;;;;14.50;99.90;;;;;;5110036;28;19923;-87
2021/06/30 11:28:31;;;;;;;;;;;14.50;99.90;;;;;;5102213;28;19919;-90
2021/06/30 11:30:58;;;;;;;;;;;14.40;99.90;;;;;;5106620;28;19927;-89
2021/06/30 11:33:24;;;;;;;;;;;14.40;99.90;;;;;;5093340;28;19949;-88
2021/06/30 11:35:51;;;;;;;;;;;14.50;99.90;;;;;;5111074;28;19919;-88
2021/06/30 11:38:18;;;;;;;;;;;14.50;99.90;;;;;;5111179;28;19988;-88
2021/06/30 11:40:57;;;;;;;;;;;14.40;99.90;;;;;;5109147;28;19926;-88
2021/06/30 11:43:29;;;;;;;;;;;14.50;99.90;;;;;;5110628;28;20450;-88
2021/06/30 11:45:57;;;;;;;;;;;14.40;99.90;;;;;;5110198;27;19920;-88
2021/06/30 11:48:23;;;;;;;;;;;14.40;99.90;;;;;;5110278;28;19920;-88
2021/06/30 11:50:49;;;;;;;;;;;14.40;99.90;;;;;;5093644;28;19919;-88
2021/06/30 11:53:15;;;;;;;;;;;14.40;99.90;;;;;;5110648;28;20351;-87
2021/06/30 11:55:41;;;;;;;;;;;14.30;99.90;;;;;;5093234;28;20382;-88
2021/06/30 11:58:08;;;;;;;;;;;14.20;99.90;;;;;;5110641;28;19916;-87
2021/06/30 12:00:38;;;;;;;;;;;14.10;99.90;;;;;;5123208;27;19968;-88
2021/06/30 12:03:05;;;;;;;;;;;14.20;99.90;;;;;;5110792;28;19959;-88
2021/06/30 12:05:31;;;;;;;;;;;14.20;99.90;;;;;;5109626;28;19920;-87
2021/06/30 12:07:58;;;;;;;;;;;14.20;99.90;;;;;;5094067;28;19922;-88
2021/06/30 12:10:24;;;;;;;;;;;14.30;99.90;;;;;;5126824;27;19966;-88
2021/06/30 12:12:50;;;;;;;;;;;14.40;99.90;;;;;;5108387;27;19920;-88
2021/06/30 12:15:17;;;;;;;;;;;14.30;99.90;;;;;;5088707;28;20282;-88
2021/06/30 12:17:50;;;;;;;;;;;14.40;99.90;;;;;;5106704;28;19924;-88
2021/06/30 12:20:17;;;;;;;;;;;14.40;99.90;;;;;;5110377;28;19920;-88
2021/06/30 12:22:43;;;;;;;;;;;14.40;99.90;;;;;;5109986;28;19919;-88
2021/06/30 12:25:11;;;;;;;;;;;14.50;99.90;;;;;;5110142;28;20389;-88
2021/06/30 12:27:40;;;;;;;;;;;14.50;99.90;;;;;;5109834;28;19926;-88
2021/06/30 12:30:16;;;;;;;;;;;14.40;99.90;;;;;;5109621;28;19923;-88
2021/06/30 12:32:47;;;;;;;;;;;14.40;99.90;;;;;;5109265;28;19924;-88
2021/06/30 12:35:17;;;;;;;;;;;14.40;99.90;;;;;;5125623;28;19927;-87
2021/06/30 12:37:52;;;;;;;;;;;14.40;99.90;;;;;;5092833;28;19920;-88
2021/06/30 12:40:18;;;;;;;;;;;14.40;99.90;;;;;;5108869;28;19920;-88
2021/06/30 12:42:44;;;;;;;;;;;14.50;99.90;;;;;;5091897;28;20472;-87
2021/06/30 12:45:11;;;;;;;;;;;14.40;99.90;;;;;;5122020;28;19923;-88
2021/06/30 12:47:48;;;;;;;;;;;14.40;99.90;;;;;;5096253;28;19951;-88
2021/06/30 12:50:14;;;;;;;;;;;14.50;99.90;;;;;;5109344;28;19923;-88
2021/06/30 12:52:40;;;;;;;;;;;14.50;99.90;;;;;;5108753;28;20287;-88
2021/06/30 12:55:08;;;;;;;;;;;14.50;99.90;;;;;;5110201;28;20048;-88
2021/06/30 12:57:52;;;;;;;;;;;14.50;99.90;;;;;;5110849;28;19973;-88
2021/06/30 13:00:19;;;;;;;;;;;14.60;99.90;;;;;;5130328;27;19941;-88
2021/06/30 13:02:46;;;;;;;;;;;14.70;99.90;;;;;;5096698;28;20328;-88
2021/06/30 13:05:24;;;;;;;;;;;14.70;99.90;;;;;;5106351;28;19926;-87
2021/06/30 13:07:50;;;;;;;;;;;14.70;99.90;;;;;;5113909;28;19911;-88
2021/06/30 13:14:16;;;;;;;;;;;14.70;99.90;;;;;;5101232;28;20413;-89
2021/06/30 13:16:54;;;;;;;;;;;14.60;99.90;;;;;;5115013;28;20397;-88
2021/06/30 13:22:42;;;;;;;;;;;14.60;99.90;;;;;;5113320;28;19921;-88
2021/06/30 13:34:30;;;;;;;;;;;14.60;99.90;;;;;;5113611;28;19924;-88
2021/06/30 13:37:00;;;;;;;;;;;14.60;99.90;;;;;;5128872;27;19928;-88
2021/06/30 13:39:27;;;;;;;;;;;14.60;99.90;;;;;;5097129;28;19918;-88
2021/06/30 13:41:53;;;;;;;;;;;14.70;99.90;;;;;;5105996;27;19964;-88
2021/06/30 13:44:23;;;;;;;;;;;14.70;99.90;;;;;;5130771;27;19947;-88
2021/06/30 13:46:49;;;;;;;;;;;14.80;99.90;;;;;;5113659;28;20016;-88
2021/06/30 13:49:15;;;;;;;;;;;14.80;99.90;;;;;;5113835;28;20378;-89
2021/06/30 13:51:40;;;;;;;;;;;14.70;99.90;;;;;;5115322;27;19916;-88
2021/06/30 13:54:06;;;;;;;;;;;14.70;99.90;;;;;;5099967;28;19945;-89
2021/06/30 13:56:32;;;;;;;;;;;14.70;99.90;;;;;;5079647;28;19923;-89
2021/06/30 13:58:58;;;;;;;;;;;14.80;99.90;;;;;;5093986;28;20303;-88
2021/06/30 14:01:27;;;;;;;;;;;14.80;99.90;;;;;;5097490;28;19924;-88
2021/06/30 14:03:53;;;;;;;;;;;14.70;99.90;;;;;;5080015;28;20022;-88
2021/06/30 14:06:19;;;;;;;;;;;14.70;99.90;;;;;;5093004;28;19943;-89
2021/06/30 14:16:06;;;;;;;;;;;14.70;99.90;;;;;;5070889;28;19959;-89
2021/06/30 14:18:32;;;;;;;;;;;14.80;99.90;;;;;;5072582;28;19916;-88
2021/06/30 14:20:58;;;;;;;;;;;14.80;99.90;;;;;;5073476;28;19920;-89
2021/06/30 14:23:24;;;;;;;;;;;14.70;99.90;;;;;;5073299;28;19924;-89
2021/06/30 14:25:50;;;;;;;;;;;14.70;99.90;;;;;;5055934;28;19924;-89
2021/06/30 14:28:16;;;;;;;;;;;14.70;99.90;;;;;;5072389;28;19916;-88
2021/06/30 14:30:48;;;;;;;;;;;14.80;99.90;;;;;;5051470;28;20111;-89
2021/06/30 14:33:14;;;;;;;;;;;14.90;99.90;;;;;;5053245;28;20062;-88
2021/06/30 14:35:40;;;;;;;;;;;14.90;99.90;;;;;;5055029;28;20007;-88
2021/06/30 14:38:06;;;;;;;;;;;14.90;99.90;;;;;;5055845;28;19925;-88
2021/06/30 14:40:32;;;;;;;;;;;14.90;99.90;;;;;;5051351;28;19939;-89
2021/06/30 14:42:58;;;;;;;;;;;14.90;99.90;;;;;;5052421;28;19983;-88